Time;durP1;ratioP1;P1;durP2;ratioP2;P2;SDS_P1;SDS_P2;PMS_P1;PMS_P2;Temp;Humidity;BMP_temperature;BMP_pressure;BME280_temperature;BME280_humidity;BME280_pressure;Samples;Min_cycle;Max_cycle;Signal;HPM_P1;HPM_P2
2022/06/09 00:01:49;;;;;;;18.77;4.13;;;-40.00;99.90;;;;;;5116514;28;20201;-68
2022/06/09 00:04:38;;;;;;;17.47;4.67;;;-40.00;99.90;;;;;;5115306;27;20170;-68
2022/06/09 00:07:13;;;;;;;25.67;5.57;;;-40.00;99.90;;;;;;5116283;28;20177;-68
2022/06/09 00:09:47;;;;;;;15.07;5.23;;;-40.00;99.90;;;;;;5115981;28;20604;-71
2022/06/09 00:12:13;;;;;;;12.43;4.13;;;-40.00;99.90;;;;;;5116421;28;20233;-70
2022/06/09 00:14:40;;;;;;;19.43;5.07;;;-40.00;99.90;;;;;;5116265;28;20609;-69
2022/06/09 00:17:06;;;;;;;24.33;5.63;;;-40.00;99.90;;;;;;5116261;28;20249;-69
2022/06/09 00:19:32;;;;;;;16.77;4.03;;;-40.00;99.90;;;;;;5116028;28;20250;-69
2022/06/09 00:21:58;;;;;;;20.77;4.80;;;-40.00;99.90;;;;;;5116172;28;20238;-70
2022/06/09 00:24:24;;;;;;;17.37;4.83;;;-40.00;99.90;;;;;;5115946;28;20656;-69
2022/06/09 00:26:50;;;;;;;11.47;4.13;;;-40.00;99.90;;;;;;5116102;28;20165;-69
2022/06/09 00:29:16;;;;;;;24.80;4.30;;;-40.00;99.90;;;;;;5116189;28;20166;-76
2022/06/09 00:31:41;;;;;;;16.00;4.63;;;-40.00;99.90;;;;;;5116075;28;20194;-77
2022/06/09 00:34:07;;;;;;;15.00;4.23;;;-40.00;99.90;;;;;;5116146;28;20264;-74
2022/06/09 00:36:33;;;;;;;14.77;4.60;;;-40.00;99.90;;;;;;5115613;28;20242;-70
2022/06/09 00:38:59;;;;;;;10.63;3.10;;;-40.00;99.90;;;;;;5115862;28;20174;-74
2022/06/09 00:41:25;;;;;;;10.53;4.07;;;-40.00;99.90;;;;;;5115997;28;20162;-69
2022/06/09 00:43:52;;;;;;;13.30;4.30;;;-40.00;99.90;;;;;;5116194;28;20177;-68
2022/06/09 00:46:27;;;;;;;13.70;3.60;;;-40.00;99.90;;;;;;5115973;28;20199;-69
2022/06/09 00:48:57;;;;;;;15.73;4.57;;;-40.00;99.90;;;;;;5114911;28;20588;-71
2022/06/09 00:51:35;;;;;;;15.30;3.70;;;-40.00;99.90;;;;;;5115846;28;20198;-71
2022/06/09 00:54:06;;;;;;;17.67;4.00;;;-40.00;99.90;;;;;;5115685;28;20167;-69
2022/06/09 00:56:35;;;;;;;13.23;4.03;;;-40.00;99.90;;;;;;5114910;28;20253;-69
2022/06/09 00:59:01;;;;;;;17.23;4.23;;;-40.00;99.90;;;;;;5116052;28;20201;-69
2022/06/09 01:01:28;;;;;;;24.17;5.23;;;-40.00;99.90;;;;;;5115866;28;20589;-68
2022/06/09 01:04:00;;;;;;;18.33;4.60;;;-40.00;99.90;;;;;;5117649;28;20174;-69
2022/06/09 01:06:32;;;;;;;18.30;4.13;;;-40.00;99.90;;;;;;5119636;28;20173;-68
2022/06/09 01:09:01;;;;;;;23.77;5.93;;;-40.00;99.90;;;;;;5119444;28;20200;-68
2022/06/09 01:11:27;;;;;;;19.07;4.63;;;-40.00;99.90;;;;;;5119684;28;20189;-68
2022/06/09 01:13:56;;;;;;;16.93;4.57;;;-40.00;99.90;;;;;;5119583;28;20173;-72
2022/06/09 01:16:51;;;;;;;16.80;5.17;;;-40.00;99.90;;;;;;5119585;28;20636;-68
2022/06/09 01:19:47;;;;;;;17.17;5.30;;;-40.00;99.90;;;;;;5119705;28;20174;-69
2022/06/09 01:22:19;;;;;;;18.00;5.23;;;-40.00;99.90;;;;;;5118926;28;20588;-71
2022/06/09 01:24:48;;;;;;;16.77;4.00;;;-40.00;99.90;;;;;;5119420;28;20169;-73
2022/06/09 01:27:27;;;;;;;16.27;4.60;;;-40.00;99.90;;;;;;5118255;28;20422;-71
2022/06/09 01:30:05;;;;;;;21.47;5.10;;;-40.00;99.90;;;;;;5119230;28;20493;-69
2022/06/09 01:32:42;;;;;;;20.13;4.23;;;-40.00;99.90;;;;;;5119090;28;20184;-73
2022/06/09 01:35:16;;;;;;;18.10;7.50;;;-40.00;99.90;;;;;;5117938;28;20184;-75
2022/06/09 01:37:46;;;;;;;14.70;4.60;;;-40.00;99.90;;;;;;5118784;28;20580;-74
2022/06/09 01:40:14;;;;;;;16.40;3.93;;;-40.00;99.90;;;;;;5119199;28;20162;-71
2022/06/09 01:42:44;;;;;;;19.47;5.63;;;-40.00;99.90;;;;;;5117927;28;20173;-73
2022/06/09 01:45:13;;;;;;;13.63;4.47;;;-40.00;99.90;;;;;;5118984;28;20565;-72
2022/06/09 01:47:51;;;;;;;20.90;4.37;;;-40.00;99.90;;;;;;5117893;28;20185;-74
2022/06/09 01:50:46;;;;;;;14.13;5.20;;;-40.00;99.90;;;;;;5118920;28;20199;-70
2022/06/09 01:53:30;;;;;;;12.77;4.40;;;-40.00;99.90;;;;;;5114656;28;20203;-69
2022/06/09 01:56:11;;;;;;;27.00;5.57;;;-40.00;99.90;;;;;;5118746;28;20158;-69
2022/06/09 01:58:51;;;;;;;29.80;6.67;;;-40.00;99.90;;;;;;5117688;28;20580;-71
2022/06/09 02:01:22;;;;;;;24.13;6.37;;;-40.00;99.90;;;;;;5118611;28;20169;-73
2022/06/09 02:03:51;;;;;;;17.13;5.60;;;-40.00;99.90;;;;;;5117489;28;20477;-72
2022/06/09 02:06:19;;;;;;;37.20;8.23;;;-40.00;99.90;;;;;;5118615;28;20177;-74
2022/06/09 02:08:46;;;;;;;18.83;5.13;;;-40.00;99.90;;;;;;5118290;28;20509;-69
2022/06/09 02:11:13;;;;;;;18.00;4.67;;;-40.00;99.90;;;;;;5117378;28;20612;-73
2022/06/09 02:13:47;;;;;;;11.13;3.60;;;-40.00;99.90;;;;;;5118276;28;20173;-72
2022/06/09 02:16:17;;;;;;;20.97;6.10;;;-40.00;99.90;;;;;;5118487;28;20166;-74
2022/06/09 02:18:46;;;;;;;19.03;5.40;;;-40.00;99.90;;;;;;5118290;28;20166;-73
2022/06/09 02:21:33;;;;;;;25.40;6.07;;;-40.00;99.90;;;;;;5118084;28;20172;-71
2022/06/09 02:24:00;;;;;;;19.43;5.53;;;-40.00;99.90;;;;;;5118182;28;20170;-73
2022/06/09 02:26:26;;;;;;;16.13;4.40;;;-40.00;99.90;;;;;;5117107;28;20569;-68
2022/06/09 02:28:52;;;;;;;22.57;5.03;;;-40.00;99.90;;;;;;5118128;28;20569;-72
2022/06/09 02:31:20;;;;;;;19.53;6.07;;;-40.00;99.90;;;;;;5117004;28;20202;-72
2022/06/09 02:33:46;;;;;;;17.33;4.93;;;-40.00;99.90;;;;;;5117027;28;20195;-74
2022/06/09 02:36:13;;;;;;;18.37;5.30;;;-40.00;99.90;;;;;;5117605;28;20187;-71
2022/06/09 02:38:39;;;;;;;21.27;4.80;;;-40.00;99.90;;;;;;5117988;28;20226;-70
2022/06/09 02:41:05;;;;;;;24.07;7.33;;;-40.00;99.90;;;;;;5117965;28;20581;-70
2022/06/09 02:43:31;;;;;;;20.30;4.80;;;-40.00;99.90;;;;;;5117843;28;20171;-70
2022/06/09 02:45:57;;;;;;;18.57;6.73;;;-40.00;99.90;;;;;;5117704;27;20639;-71
2022/06/09 02:48:23;;;;;;;25.40;5.77;;;-40.00;99.90;;;;;;5117782;28;20480;-73
2022/06/09 02:50:52;;;;;;;18.13;4.80;;;-40.00;99.90;;;;;;5116360;28;20551;-69
2022/06/09 02:53:19;;;;;;;10.97;5.57;;;-40.00;99.90;;;;;;5117595;27;20164;-73
2022/06/09 02:55:46;;;;;;;14.67;4.37;;;-40.00;99.90;;;;;;5116635;28;20170;-74
2022/06/09 02:58:12;;;;;;;18.63;6.13;;;-40.00;99.90;;;;;;5116381;28;20578;-75
2022/06/09 03:00:38;;;;;;;13.77;4.43;;;-40.00;99.90;;;;;;5117757;28;20340;-71
2022/06/09 03:03:10;;;;;;;18.30;6.03;;;-40.00;99.90;;;;;;5117392;27;20261;-70
2022/06/09 03:05:36;;;;;;;23.30;4.57;;;-40.00;99.90;;;;;;5116083;28;20623;-73
2022/06/09 03:08:04;;;;;;;30.30;5.40;;;-40.00;99.90;;;;;;5117237;28;20198;-74
2022/06/09 03:10:29;;;;;;;21.30;5.17;;;-40.00;99.90;;;;;;5116200;28;20198;-73
2022/06/09 03:12:55;;;;;;;26.23;6.63;;;-40.00;99.90;;;;;;5117288;28;20177;-71
2022/06/09 03:15:22;;;;;;;20.40;4.73;;;-40.00;99.90;;;;;;5117332;28;20167;-72
2022/06/09 03:17:49;;;;;;;17.63;5.67;;;-40.00;99.90;;;;;;5117260;28;20159;-74
2022/06/09 03:20:25;;;;;;;13.47;4.80;;;-40.00;99.90;;;;;;5116863;28;20255;-70
2022/06/09 03:22:52;;;;;;;11.73;4.37;;;-40.00;99.90;;;;;;5117114;28;20174;-72
2022/06/09 03:25:18;;;;;;;19.43;4.80;;;-40.00;99.90;;;;;;5116400;28;20581;-71
2022/06/09 03:27:44;;;;;;;17.00;5.20;;;-40.00;99.90;;;;;;5116985;27;20167;-71
2022/06/09 03:30:10;;;;;;;17.43;5.47;;;-40.00;99.90;;;;;;5116898;28;20182;-70
2022/06/09 03:32:36;;;;;;;19.83;5.47;;;-40.00;99.90;;;;;;5116879;27;20164;-69
2022/06/09 03:35:02;;;;;;;14.83;5.30;;;-40.00;99.90;;;;;;5116309;28;20162;-72
2022/06/09 03:37:28;;;;;;;19.10;5.20;;;-40.00;99.90;;;;;;5115653;28;20174;-72
2022/06/09 03:39:54;;;;;;;10.93;4.20;;;-40.00;99.90;;;;;;5116805;28;20679;-73
2022/06/09 03:42:19;;;;;;;17.37;4.97;;;-40.00;99.90;;;;;;5116953;28;20166;-74
2022/06/09 03:44:46;;;;;;;14.40;3.87;;;-40.00;99.90;;;;;;5116688;28;20189;-74
2022/06/09 03:47:11;;;;;;;26.43;6.60;;;-40.00;99.90;;;;;;5116455;28;20162;-73
2022/06/09 03:49:38;;;;;;;20.90;4.97;;;-40.00;99.90;;;;;;5116660;28;20215;-76
2022/06/09 03:52:05;;;;;;;16.23;4.23;;;-40.00;99.90;;;;;;5116571;28;20204;-73
2022/06/09 03:54:30;;;;;;;19.37;5.20;;;-40.00;99.90;;;;;;5116567;28;20162;-74
2022/06/09 03:56:56;;;;;;;21.83;5.77;;;-40.00;99.90;;;;;;5116457;28;20219;-70
2022/06/09 03:59:22;;;;;;;22.37;5.40;;;-40.00;99.90;;;;;;5116380;28;20198;-70
2022/06/09 04:01:48;;;;;;;16.80;5.77;;;-40.00;99.90;;;;;;5116238;28;20215;-69
2022/06/09 04:04:14;;;;;;;21.43;5.77;;;-40.00;99.90;;;;;;5115245;28;20184;-72
2022/06/09 04:06:41;;;;;;;20.27;5.63;;;-40.00;99.90;;;;;;5116402;28;20173;-70
2022/06/09 04:09:07;;;;;;;14.20;5.10;;;-40.00;99.90;;;;;;5116311;28;20186;-75
2022/06/09 04:11:33;;;;;;;21.63;5.77;;;-40.00;99.90;;;;;;5116274;28;20482;-69
2022/06/09 04:14:00;;;;;;;19.30;5.80;;;-40.00;99.90;;;;;;5116344;28;20162;-72
2022/06/09 04:16:35;;;;;;;25.73;7.07;;;-40.00;99.90;;;;;;5115917;28;20171;-74
2022/06/09 04:19:04;;;;;;;14.57;4.10;;;-40.00;99.90;;;;;;5116146;28;20165;-73
2022/06/09 04:21:31;;;;;;;13.07;3.80;;;-40.00;99.90;;;;;;5116153;28;20169;-72
2022/06/09 04:23:58;;;;;;;26.70;5.90;;;-40.00;99.90;;;;;;5115877;28;20182;-72
2022/06/09 04:26:27;;;;;;;17.67;4.27;;;-40.00;99.90;;;;;;5116168;28;20636;-72
2022/06/09 04:28:54;;;;;;;23.67;5.33;;;-40.00;99.90;;;;;;5116144;28;20169;-74
2022/06/09 04:31:20;;;;;;;12.30;4.47;;;-40.00;99.90;;;;;;5115542;28;20585;-76
2022/06/09 04:33:48;;;;;;;16.43;4.03;;;-40.00;99.90;;;;;;5114957;28;20170;-76
2022/06/09 04:36:15;;;;;;;16.13;4.40;;;-40.00;99.90;;;;;;5115890;28;20175;-77
2022/06/09 04:38:42;;;;;;;18.40;5.73;;;-40.00;99.90;;;;;;5118527;28;20257;-72
2022/06/09 04:41:09;;;;;;;20.60;4.70;;;-40.00;99.90;;;;;;5120094;28;20192;-74
2022/06/09 04:43:36;;;;;;;14.37;5.37;;;-40.00;99.90;;;;;;5120222;28;20172;-72
2022/06/09 04:46:04;;;;;;;24.80;5.60;;;-40.00;99.90;;;;;;5119916;28;20657;-75
2022/06/09 04:48:30;;;;;;;11.10;4.10;;;-40.00;99.90;;;;;;5120172;28;20187;-75
2022/06/09 04:50:56;;;;;;;18.33;5.17;;;-40.00;99.90;;;;;;5120065;28;20194;-71
2022/06/09 04:53:22;;;;;;;20.80;5.83;;;-40.00;99.90;;;;;;5120111;28;20166;-76
2022/06/09 04:55:49;;;;;;;25.90;6.03;;;-40.00;99.90;;;;;;5119925;28;20210;-76
2022/06/09 04:58:15;;;;;;;16.63;5.87;;;-40.00;99.90;;;;;;5120019;28;20211;-75
2022/06/09 05:00:42;;;;;;;12.43;3.87;;;-40.00;99.90;;;;;;5119695;27;20599;-72
2022/06/09 05:03:13;;;;;;;18.53;5.83;;;-40.00;99.90;;;;;;5119860;28;20174;-71
2022/06/09 05:05:43;;;;;;;17.10;4.63;;;-40.00;99.90;;;;;;5119681;28;20185;-74
2022/06/09 05:08:10;;;;;;;13.00;4.37;;;-40.00;99.90;;;;;;5119731;28;20180;-72
2022/06/09 05:10:36;;;;;;;10.60;3.33;;;-40.00;99.90;;;;;;5119587;28;20200;-74
2022/06/09 05:13:05;;;;;;;16.37;4.73;;;-40.00;99.90;;;;;;5118559;28;20173;-69
2022/06/09 05:15:35;;;;;;;21.80;4.93;;;-40.00;99.90;;;;;;5136963;27;20180;-75
2022/06/09 05:18:01;;;;;;;14.00;4.23;;;-40.00;99.90;;;;;;5140174;27;20160;-72
2022/06/09 05:20:27;;;;;;;17.70;4.67;;;-40.00;99.90;;;;;;5140119;27;20172;-70
2022/06/09 05:22:53;;;;;;;14.60;4.17;;;-40.00;99.90;;;;;;5138841;27;20482;-71
2022/06/09 05:25:20;;;;;;;22.87;5.17;;;-40.00;99.90;;;;;;5139850;27;20173;-67
2022/06/09 05:27:46;;;;;;;13.47;4.13;;;-40.00;99.90;;;;;;5139921;27;20165;-73
2022/06/09 05:30:15;;;;;;;14.60;4.87;;;-40.00;99.90;;;;;;5139623;27;20189;-68
2022/06/09 05:32:41;;;;;;;14.53;4.17;;;-40.00;99.90;;;;;;5139589;27;20475;-80
2022/06/09 05:35:07;;;;;;;13.87;4.10;;;-40.00;99.90;;;;;;5138464;27;20587;-72
2022/06/09 05:45:47;;;;;;;17.43;4.50;;;-40.00;99.90;;;;;;5139730;27;20251;-73
2022/06/09 05:48:13;;;;;;;11.47;4.10;;;-40.00;99.90;;;;;;5138224;27;20267;-70
2022/06/09 05:50:39;;;;;;;20.90;3.87;;;-40.00;99.90;;;;;;5138507;27;20201;-72
2022/06/09 05:53:05;;;;;;;17.10;4.03;;;-40.00;99.90;;;;;;5139427;27;20173;-70
2022/06/09 05:55:31;;;;;;;17.27;4.97;;;-40.00;99.90;;;;;;5139436;27;20207;-70
2022/06/09 05:57:57;;;;;;;21.37;7.07;;;-40.00;99.90;;;;;;5104454;27;21156;-71
2022/06/09 06:00:23;;;;;;;22.93;6.47;;;-40.00;99.90;;;;;;5133435;27;20177;-71
2022/06/09 06:02:49;;;;;;;17.13;4.73;;;-40.00;99.90;;;;;;5132610;27;20169;-70
2022/06/09 06:07:59;;;;;;;25.27;6.47;;;-40.00;99.90;;;;;;5132490;27;20185;-70
2022/06/09 06:10:25;;;;;;;17.60;8.23;;;-40.00;99.90;;;;;;5125138;27;20197;-70
2022/06/09 06:12:51;;;;;;;13.83;4.20;;;-40.00;99.90;;;;;;5123744;27;20173;-69
2022/06/09 06:15:17;;;;;;;16.47;5.50;;;-40.00;99.90;;;;;;5135532;27;20195;-69
2022/06/09 06:17:43;;;;;;;22.93;5.10;;;-40.00;99.90;;;;;;5135315;27;20266;-69
2022/06/09 06:20:09;;;;;;;17.37;4.97;;;-40.00;99.90;;;;;;5134407;27;20181;-68
2022/06/09 06:22:35;;;;;;;10.53;3.73;;;-40.00;99.90;;;;;;5135240;27;20675;-68
2022/06/09 06:25:02;;;;;;;17.53;6.17;;;-40.00;99.90;;;;;;5135098;27;20165;-69
2022/06/09 06:27:28;;;;;;;19.40;6.47;;;-40.00;99.90;;;;;;5133764;27;20180;-70
2022/06/09 06:29:55;;;;;;;19.33;5.13;;;-40.00;99.90;;;;;;5133613;27;20529;-70
2022/06/09 06:32:21;;;;;;;17.03;5.47;;;-40.00;99.90;;;;;;5134940;27;20188;-68
2022/06/09 06:34:46;;;;;;;16.63;4.70;;;-40.00;99.90;;;;;;5134932;27;20229;-69
2022/06/09 06:37:12;;;;;;;18.57;5.23;;;-40.00;99.90;;;;;;5134540;27;20607;-73
2022/06/09 06:39:38;;;;;;;23.93;6.00;;;-40.00;99.90;;;;;;5134835;27;20184;-69
2022/06/09 06:42:04;;;;;;;17.40;6.67;;;-40.00;99.90;;;;;;5134040;27;20185;-69
2022/06/09 06:44:30;;;;;;;16.87;5.27;;;-40.00;99.90;;;;;;5134810;27;20229;-71
2022/06/09 06:46:56;;;;;;;15.47;5.03;;;-40.00;99.90;;;;;;5134252;27;20177;-69
2022/06/09 06:49:22;;;;;;;14.50;4.90;;;-40.00;99.90;;;;;;5134716;27;20596;-69
2022/06/09 06:51:49;;;;;;;10.87;4.53;;;-40.00;99.90;;;;;;5134053;27;20215;-70
2022/06/09 06:54:14;;;;;;;41.13;7.73;;;-40.00;99.90;;;;;;5134149;27;20166;-69
2022/06/09 06:56:40;;;;;;;17.17;4.57;;;-40.00;99.90;;;;;;5133903;27;20580;-68
2022/06/09 06:59:06;;;;;;;18.13;5.33;;;-40.00;99.90;;;;;;5134530;27;20253;-68
2022/06/09 07:01:32;;;;;;;11.47;4.50;;;-40.00;99.90;;;;;;5120264;27;20585;-69
2022/06/09 07:03:58;;;;;;;16.73;4.60;;;-40.00;99.90;;;;;;5137458;27;20612;-69
2022/06/09 07:06:25;;;;;;;15.27;5.67;;;-40.00;99.90;;;;;;5137778;27;20185;-68
2022/06/09 07:08:51;;;;;;;22.27;4.83;;;-40.00;99.90;;;;;;5137716;27;20210;-69
2022/06/09 07:11:17;;;;;;;11.90;4.10;;;-40.00;99.90;;;;;;5137484;27;20192;-68
2022/06/09 07:13:43;;;;;;;21.13;5.17;;;-40.00;99.90;;;;;;5137132;27;20514;-70
2022/06/09 07:16:09;;;;;;;26.30;7.13;;;-40.00;99.90;;;;;;5136910;27;20475;-74
2022/06/09 07:18:37;;;;;;;14.87;5.07;;;-40.00;99.90;;;;;;5137386;27;20256;-69
2022/06/09 07:21:04;;;;;;;23.20;5.27;;;-40.00;99.90;;;;;;5137361;27;20226;-70
2022/06/09 07:23:30;;;;;;;15.47;5.17;;;-40.00;99.90;;;;;;5137483;27;20161;-69
2022/06/09 07:25:57;;;;;;;18.53;6.13;;;-40.00;99.90;;;;;;5136126;27;20188;-72
2022/06/09 07:28:24;;;;;;;19.97;6.30;;;-40.00;99.90;;;;;;5136393;27;20173;-68
2022/06/09 07:30:56;;;;;;;24.07;7.10;;;-40.00;99.90;;;;;;5137047;27;20196;-69
2022/06/09 07:33:23;;;;;;;18.80;5.80;;;-40.00;99.90;;;;;;5136965;27;20203;-68
2022/06/09 07:35:51;;;;;;;13.60;5.10;;;-40.00;99.90;;;;;;5137051;27;20648;-73
2022/06/09 07:38:18;;;;;;;13.83;4.97;;;-40.00;99.90;;;;;;5136282;27;20181;-74
2022/06/09 07:40:44;;;;;;;25.60;5.37;;;-40.00;99.90;;;;;;5136499;27;20175;-72
2022/06/09 07:43:11;;;;;;;18.00;6.07;;;-40.00;99.90;;;;;;5137318;27;20169;-69
2022/06/09 07:45:38;;;;;;;11.43;4.90;;;-40.00;99.90;;;;;;5136741;27;20208;-71
2022/06/09 07:48:04;;;;;;;10.63;4.53;;;-40.00;99.90;;;;;;5136251;27;20234;-74
2022/06/09 07:50:32;;;;;;;18.30;4.87;;;-40.00;99.90;;;;;;5136761;27;20504;-69
2022/06/09 07:52:59;;;;;;;15.53;5.77;;;-40.00;99.90;;;;;;5136973;27;20169;-69
2022/06/09 07:55:25;;;;;;;13.43;5.30;;;-40.00;99.90;;;;;;5136143;27;20169;-73
2022/06/09 07:57:52;;;;;;;18.03;5.57;;;-40.00;99.90;;;;;;5136843;27;20236;-69
2022/06/09 08:00:19;;;;;;;22.47;5.53;;;-40.00;99.90;;;;;;5136524;27;20173;-69
2022/06/09 08:02:46;;;;;;;8.53;4.30;;;-40.00;99.90;;;;;;5136987;27;20181;-70
2022/06/09 08:05:14;;;;;;;14.80;4.67;;;-40.00;99.90;;;;;;5136517;27;20161;-70
2022/06/09 08:07:41;;;;;;;9.73;4.40;;;-40.00;99.90;;;;;;5136238;27;20512;-69
2022/06/09 08:10:09;;;;;;;16.63;4.50;;;-40.00;99.90;;;;;;5136259;27;20221;-68
2022/06/09 08:12:35;;;;;;;11.77;5.03;;;-40.00;99.90;;;;;;5136383;27;20177;-69
2022/06/09 08:15:02;;;;;;;16.50;5.53;;;-40.00;99.90;;;;;;5136541;27;20166;-68
2022/06/09 08:17:28;;;;;;;12.07;6.03;;;-40.00;99.90;;;;;;5136645;27;20244;-67
2022/06/09 08:19:54;;;;;;;11.33;4.90;;;-40.00;99.90;;;;;;5136041;27;20568;-68
2022/06/09 08:22:20;;;;;;;13.17;4.50;;;-40.00;99.90;;;;;;5136371;27;20472;-68
2022/06/09 08:24:46;;;;;;;12.67;4.90;;;-40.00;99.90;;;;;;5135995;27;20177;-72
2022/06/09 08:27:13;;;;;;;14.87;5.20;;;-40.00;99.90;;;;;;5136506;27;20165;-68
2022/06/09 08:29:39;;;;;;;9.97;6.00;;;-40.00;99.90;;;;;;5135909;27;20516;-74
2022/06/09 08:32:05;;;;;;;21.43;5.33;;;-40.00;99.90;;;;;;5136523;27;20201;-68
2022/06/09 08:34:31;;;;;;;10.83;4.50;;;-40.00;99.90;;;;;;5135320;27;20172;-71
2022/06/09 08:36:57;;;;;;;18.33;4.87;;;-40.00;99.90;;;;;;5135506;27;20221;-69
2022/06/09 08:39:23;;;;;;;8.93;4.30;;;-40.00;99.90;;;;;;5136176;27;20210;-68
2022/06/09 08:41:58;;;;;;;12.27;5.23;;;-40.00;99.90;;;;;;5136065;27;20181;-69
2022/06/09 08:44:42;;;;;;;9.43;5.17;;;-40.00;99.90;;;;;;5134892;27;20176;-72
2022/06/09 08:47:31;;;;;;;12.20;4.67;;;-40.00;99.90;;;;;;5136211;27;20165;-74
2022/06/09 08:50:04;;;;;;;17.00;5.47;;;-40.00;99.90;;;;;;5139452;27;20183;-74
2022/06/09 08:52:49;;;;;;;9.67;4.30;;;-40.00;99.90;;;;;;5156831;27;20184;-77
2022/06/09 08:55:41;;;;;;;13.23;4.87;;;-40.00;99.90;;;;;;5149633;27;20500;-77
2022/06/09 08:58:21;;;;;;;13.20;5.00;;;-40.00;99.90;;;;;;5135847;27;20286;-70
2022/06/09 09:00:59;;;;;;;9.73;4.63;;;-40.00;99.90;;;;;;5135676;27;20251;-71
2022/06/09 09:03:54;;;;;;;8.93;3.90;;;-40.00;99.90;;;;;;5133517;28;20576;-71
2022/06/09 09:06:39;;;;;;;11.23;5.03;;;-40.00;99.90;;;;;;5113037;28;20197;-68
2022/06/09 09:09:23;;;;;;;7.17;3.77;;;-40.00;99.90;;;;;;5114703;28;20612;-72
2022/06/09 09:12:01;;;;;;;17.77;4.27;;;-40.00;99.90;;;;;;5134713;28;20293;-73
2022/06/09 09:14:37;;;;;;;7.93;4.07;;;-40.00;99.90;;;;;;5135047;27;20184;-76
2022/06/09 09:17:45;;;;;;;8.37;4.27;;;-40.00;99.90;;;;;;5135618;27;20162;-68
2022/06/09 09:20:37;;;;;;;8.97;4.00;;;-40.00;99.90;;;;;;5135794;27;20165;-69
2022/06/09 09:23:11;;;;;;;7.87;3.73;;;-40.00;99.90;;;;;;5135493;27;20184;-77
2022/06/09 09:25:49;;;;;;;6.03;3.50;;;-40.00;99.90;;;;;;5139306;27;20176;-76
2022/06/09 09:28:32;;;;;;;11.00;4.30;;;-40.00;99.90;;;;;;5139628;27;20242;-79
2022/06/09 09:31:19;;;;;;;12.23;4.40;;;-40.00;99.90;;;;;;5139130;27;20200;-68
2022/06/09 09:33:45;;;;;;;15.30;6.07;;;-40.00;99.90;;;;;;5139746;27;20154;-69
2022/06/09 09:36:30;;;;;;;11.90;4.70;;;-40.00;99.90;;;;;;5138726;27;20185;-77
2022/06/09 09:39:03;;;;;;;8.00;5.00;;;-40.00;99.90;;;;;;5139423;27;20207;-76
2022/06/09 09:41:33;;;;;;;10.53;5.67;;;-40.00;99.90;;;;;;5139290;27;20229;-72
2022/06/09 09:44:21;;;;;;;20.43;7.93;;;-40.00;99.90;;;;;;5139111;27;20260;-70
2022/06/09 09:47:00;;;;;;;7.77;5.63;;;-40.00;99.90;;;;;;5138687;27;20200;-69
2022/06/09 09:49:48;;;;;;;9.87;6.70;;;-40.00;99.90;;;;;;5138115;27;20165;-69
2022/06/09 09:52:36;;;;;;;10.43;5.67;;;-40.00;99.90;;;;;;5139098;27;20274;-79
2022/06/09 09:55:02;;;;;;;12.87;7.40;;;-40.00;99.90;;;;;;5137813;27;20317;-68
2022/06/09 09:57:28;;;;;;;16.60;7.10;;;-40.00;99.90;;;;;;5138134;27;20169;-68
2022/06/09 09:59:58;;;;;;;18.97;8.60;;;-40.00;99.90;;;;;;5137808;27;20193;-68
2022/06/09 10:08:41;;;;;;;13.80;6.20;;;-40.00;99.90;;;;;;5118279;28;20225;-78
2022/06/09 10:11:54;;;;;;;7.97;5.17;;;-40.00;99.90;;;;;;5131340;27;20189;-74
2022/06/09 10:14:44;;;;;;;13.77;6.03;;;-40.00;99.90;;;;;;5139036;27;20475;-77
2022/06/09 10:17:28;;;;;;;12.03;6.83;;;-40.00;99.90;;;;;;5138589;27;20244;-75
2022/06/09 10:20:18;;;;;;;7.10;4.07;;;-40.00;99.90;;;;;;5137315;27;20572;-78
2022/06/09 10:22:56;;;;;;;15.50;3.97;;;-40.00;99.90;;;;;;5138068;27;20552;-71
2022/06/09 10:26:10;;;;;;;6.03;4.17;;;-40.00;99.90;;;;;;5138319;27;20599;-75
2022/06/09 10:28:56;;;;;;;5.60;4.10;;;-40.00;99.90;;;;;;5132020;27;20277;-71
2022/06/09 10:31:43;;;;;;;4.17;3.00;;;-40.00;99.90;;;;;;5137953;27;20189;-80
2022/06/09 10:34:26;;;;;;;6.27;3.63;;;-40.00;99.90;;;;;;5137871;27;20185;-67
2022/06/09 10:36:55;;;;;;;7.87;3.73;;;-40.00;99.90;;;;;;5137257;27;20197;-75
2022/06/09 10:39:45;;;;;;;7.73;3.63;;;-40.00;99.90;;;;;;5138356;27;20161;-67
2022/06/09 10:42:31;;;;;;;4.27;2.73;;;-40.00;99.90;;;;;;5138572;27;20165;-68
2022/06/09 10:45:03;;;;;;;4.40;2.83;;;-40.00;99.90;;;;;;5137990;27;20158;-68
2022/06/09 10:56:49;;;;;;;5.57;2.67;;;-40.00;99.90;;;;;;5138125;27;20212;-67
2022/06/09 10:59:33;;;;;;;7.57;2.67;;;-40.00;99.90;;;;;;5137745;27;20172;-68
2022/06/09 11:02:00;;;;;;;9.20;3.57;;;-40.00;99.90;;;;;;5138015;27;20198;-68
2022/06/09 11:04:30;;;;;;;6.10;3.43;;;-40.00;99.90;;;;;;5136169;27;20222;-71
2022/06/09 11:07:11;;;;;;;9.97;2.43;;;-40.00;99.90;;;;;;5137751;27;20184;-70
2022/06/09 11:10:01;;;;;;;6.93;3.10;;;-40.00;99.90;;;;;;5136026;27;20189;-68
2022/06/09 11:12:38;;;;;;;5.37;2.87;;;-40.00;99.20;;;;;;5117120;28;20223;-69
2022/06/09 11:15:10;;;;;;;4.83;2.43;;;-40.00;99.70;;;;;;5116163;28;20207;-68
2022/06/09 11:17:49;;;;;;;3.73;2.57;;;-40.00;97.80;;;;;;5116507;28;20219;-69
2022/06/09 11:20:39;;;;;;;4.70;2.13;;;-40.00;97.50;;;;;;5116722;28;20162;-69
2022/06/09 11:23:43;;;;;;;7.53;3.50;;;-40.00;97.40;;;;;;5115965;28;20184;-69
2022/06/09 11:26:21;;;;;;;6.57;3.70;;;-40.00;96.90;;;;;;5129373;27;20185;-70
2022/06/09 11:29:00;;;;;;;6.73;2.83;;;-40.00;96.40;;;;;;5137600;27;20302;-69
2022/06/09 11:31:48;;;;;;;2.90;2.70;;;-40.00;95.20;;;;;;5136985;27;20192;-71
2022/06/09 11:34:35;;;;;;;5.57;2.97;;;-40.00;94.80;;;;;;5137147;27;20161;-69
2022/06/09 11:37:19;;;;;;;5.93;4.10;;;-40.00;92.40;;;;;;5135549;27;20191;-69
2022/06/09 11:40:17;;;;;;;6.27;3.23;;;-40.00;92.10;;;;;;5130731;27;20479;-69
2022/06/09 11:43:01;;;;;;;3.30;1.83;;;-40.00;92.00;;;;;;5113710;27;20520;-71
2022/06/09 11:45:32;;;;;;;3.37;2.60;;;-40.00;93.00;;;;;;5137166;27;20201;-69
2022/06/09 11:48:03;;;;;;;5.73;2.53;;;-40.00;91.80;;;;;;5135302;27;20204;-72
2022/06/09 11:50:35;;;;;;;8.07;3.73;;;-40.00;90.50;;;;;;5135895;27;20254;-69
2022/06/09 11:53:02;;;;;;;8.67;2.67;;;-40.00;91.40;;;;;;5137013;27;20176;-68
2022/06/09 11:58:35;;;;;;;3.77;1.90;;;-40.00;80.20;;;;;;5137172;27;20179;-67
2022/06/09 12:01:16;;;;;;;3.83;2.13;;;-40.00;77.80;;;;;;5135920;27;20185;-68
2022/06/09 12:03:45;;;;;;;4.27;2.47;;;-40.00;73.70;;;;;;5136868;27;20170;-68
2022/06/09 12:06:38;;;;;;;4.87;2.17;;;-40.00;73.90;;;;;;5137018;27;20180;-67
2022/06/09 12:09:26;;;;;;;6.23;1.80;;;-40.00;73.40;;;;;;5135476;27;20213;-68
2022/06/09 12:11:57;;;;;;;4.07;2.60;;;-40.00;65.70;;;;;;5136686;27;20197;-68
2022/06/09 12:14:28;;;;;;;6.97;2.90;;;-40.00;66.90;;;;;;5136280;27;20246;-69
2022/06/09 12:17:13;;;;;;;7.33;3.47;;;-40.00;69.20;;;;;;5135070;27;20181;-68
2022/06/09 12:20:30;;;;;;;3.87;2.40;;;-40.00;70.70;;;;;;5135877;27;20628;-69
2022/06/09 12:23:34;;;;;;;6.03;3.13;;;-40.00;69.30;;;;;;5118586;27;20188;-70
2022/06/09 12:26:09;;;;;;;8.60;2.83;;;-40.00;65.00;;;;;;5136217;27;20181;-68
2022/06/09 12:28:54;;;;;;;6.03;3.47;;;-40.00;65.30;;;;;;5135730;28;20225;-69
2022/06/09 12:31:31;;;;;;;3.83;2.90;;;-40.00;64.70;;;;;;5135970;27;20205;-71
2022/06/09 12:34:05;;;;;;;4.20;2.40;;;-40.00;67.70;;;;;;5136136;27;20200;-68
2022/06/09 12:36:39;;;;;;;7.13;2.90;;;-40.00;68.80;;;;;;5135266;27;20192;-70
2022/06/09 12:39:25;;;;;;;9.53;2.40;;;-40.00;74.10;;;;;;5136469;27;20244;-68
2022/06/09 12:42:03;;;;;;;9.27;2.93;;;-40.00;73.80;;;;;;5135940;27;20170;-71
2022/06/09 12:44:32;;;;;;;10.17;4.43;;;-40.00;78.00;;;;;;5136213;28;20180;-72
2022/06/09 12:47:17;;;;;;;6.63;3.10;;;-40.00;85.30;;;;;;5136420;27;20574;-70
2022/06/09 12:49:47;;;;;;;13.13;4.00;;;-40.00;95.50;;;;;;5134982;27;20485;-71
2022/06/09 12:52:24;;;;;;;7.17;3.67;;;-40.00;96.90;;;;;;5136323;27;20203;-71
2022/06/09 12:55:04;;;;;;;11.87;4.40;;;-40.00;99.30;;;;;;5135910;27;20177;-73
2022/06/09 12:57:33;;;;;;;7.87;3.90;;;-40.00;99.30;;;;;;5135101;27;20429;-72
2022/06/09 13:00:12;;;;;;;12.47;5.60;;;-40.00;99.00;;;;;;5116958;27;20188;-74
2022/06/09 13:02:39;;;;;;;3.93;3.30;;;-40.00;95.90;;;;;;5124465;27;20207;-74
2022/06/09 13:05:20;;;;;;;5.20;4.60;;;-40.00;95.90;;;;;;5140203;27;20227;-72
2022/06/09 13:07:54;;;;;;;12.47;3.70;;;-40.00;94.70;;;;;;5140085;27;20173;-76
2022/06/09 13:10:33;;;;;;;8.30;3.47;;;-40.00;92.90;;;;;;5139813;27;20750;-70
2022/06/09 13:13:29;;;;;;;10.90;3.47;;;-40.00;92.00;;;;;;5139853;27;20198;-75
2022/06/09 13:16:04;;;;;;;8.23;3.57;;;-40.00;84.80;;;;;;5138668;27;20588;-76
2022/06/09 13:18:37;;;;;;;6.70;3.03;;;-40.00;88.30;;;;;;5139846;27;20177;-71
2022/06/09 13:21:14;;;;;;;5.50;2.63;;;-40.00;79.30;;;;;;5139580;27;20228;-70
2022/06/09 13:23:43;;;;;;;6.30;2.90;;;-40.00;67.20;;;;;;5139468;27;20177;-70